createdAt,value
2018-02-27T00:02:41.109Z,47.80
2018-02-27T00:07:45.388Z,48.00
2018-02-27T00:12:52.084Z,47.80
2018-02-27T00:17:58.762Z,48.10
2018-02-27T00:23:04.140Z,48.10
2018-02-27T00:28:11.063Z,47.90
2018-02-27T00:33:14.823Z,48.20
2018-02-27T00:38:18.011Z,48.20
2018-02-27T00:48:32.316Z,48.40
2018-02-27T00:53:39.844Z,48.30
2018-02-27T00:58:42.720Z,48.50
2018-02-27T01:03:51.219Z,48.40
2018-02-27T01:09:02.360Z,48.40
2018-02-27T01:19:27.792Z,48.40
2018-02-27T01:24:34.225Z,48.10
2018-02-27T01:29:41.065Z,48.30
2018-02-27T01:34:48.473Z,48.60
2018-02-27T01:39:58.340Z,48.70
2018-02-27T01:45:05.688Z,48.50
2018-02-27T01:50:09.776Z,48.80
2018-02-27T01:55:18.516Z,48.30
2018-02-27T02:00:26.348Z,48.90
2018-02-27T02:05:32.812Z,48.60
2018-02-27T02:10:37.907Z,48.60
2018-02-27T02:15:46.188Z,48.40
2018-02-27T02:20:51.307Z,48.00
2018-02-27T02:25:57.461Z,48.30
2018-02-27T02:31:05.424Z,48.80
2018-02-27T02:36:13.152Z,48.70
2018-02-27T02:41:16.894Z,48.70
2018-02-27T02:46:21.755Z,48.70
2018-02-27T02:51:31.516Z,48.90
2018-02-27T02:56:37.354Z,48.70
2018-02-27T03:01:41.171Z,48.40
2018-02-27T03:06:48.047Z,48.50
2018-02-27T03:11:52.890Z,48.80
2018-02-27T03:16:58.891Z,48.60
2018-02-27T03:22:03.099Z,48.90
2018-02-27T03:27:07.800Z,48.90
2018-02-27T03:32:11.610Z,48.90
2018-02-27T03:37:17.895Z,49.00
2018-02-27T03:42:25.702Z,49.00
2018-02-27T03:53:45.954Z,48.80
2018-02-27T03:58:53.889Z,48.70
2018-02-27T04:04:01.192Z,48.80
2018-02-27T04:09:06.149Z,48.70
2018-02-27T04:14:14.498Z,48.70
2018-02-27T04:19:20.064Z,48.80
2018-02-27T04:24:24.701Z,49.00
2018-02-27T04:29:29.375Z,49.00
2018-02-27T04:34:33.024Z,49.20
2018-02-27T04:39:39.732Z,48.70
2018-02-27T04:44:45.785Z,49.20
2018-02-27T04:49:51.739Z,49.40
2018-02-27T04:54:57.038Z,49.30
2018-02-27T05:00:07.480Z,49.60
2018-02-27T05:05:14.831Z,49.50
2018-02-27T05:10:17.829Z,49.60
2018-02-27T05:15:20.772Z,49.70
2018-02-27T05:20:26.022Z,49.90
2018-02-27T05:25:29.218Z,49.80
2018-02-27T05:30:32.424Z,49.70
2018-02-27T05:35:35.356Z,50.40
2018-02-27T05:40:39.438Z,49.80
2018-02-27T05:45:45.111Z,50.10
2018-02-27T05:50:48.181Z,49.60
2018-02-27T05:55:54.142Z,50.00
2018-02-27T06:00:58.158Z,49.60
2018-02-27T06:06:01.238Z,49.80
2018-02-27T06:11:09.568Z,49.70
2018-02-27T06:16:13.994Z,49.80
2018-02-27T06:21:17.419Z,49.60
2018-02-27T06:26:20.413Z,50.60
2018-02-27T06:31:25.793Z,50.10
2018-02-27T06:36:32.183Z,50.20
2018-02-27T06:41:35.808Z,50.20
2018-02-27T06:46:42.196Z,50.10
2018-02-27T06:51:46.034Z,49.90
2018-02-27T07:01:59.956Z,50.10
2018-02-27T07:07:04.700Z,50.10
2018-02-27T07:12:12.371Z,50.00
2018-02-27T07:17:19.546Z,49.90
2018-02-27T07:22:25.758Z,50.00
2018-02-27T07:27:33.974Z,49.70
2018-02-27T07:32:38.946Z,49.40
2018-02-27T07:37:47.944Z,49.30
2018-02-27T07:42:53.982Z,49.00
2018-02-27T07:47:59.064Z,49.10
2018-02-27T07:53:05.440Z,49.20
2018-02-27T07:58:15.888Z,49.00
2018-02-27T08:03:24.782Z,49.00
2018-02-27T08:08:30.395Z,48.80
2018-02-27T08:13:45.885Z,48.50
2018-02-27T08:29:19.642Z,48.50
2018-02-27T08:44:48.800Z,48.30
2018-02-27T08:50:16.580Z,47.50
2018-02-27T08:55:21.856Z,47.10
2018-02-27T09:00:32.982Z,46.80
2018-02-27T09:10:56.195Z,48.20
2018-02-27T09:16:04.164Z,48.50
2018-02-27T09:21:20.741Z,48.10
2018-02-27T09:26:32.102Z,48.60
2018-02-27T09:31:42.393Z,48.50
2018-02-27T09:37:04.096Z,48.00
2018-02-27T09:49:11.915Z,48.10
2018-02-27T09:54:31.688Z,48.20
2018-02-27T09:59:42.562Z,48.20
2018-02-27T10:05:00.731Z,47.80
2018-02-27T10:15:54.087Z,46.90
2018-02-27T10:32:01.055Z,48.40
2018-02-27T10:37:24.061Z,47.50
2018-02-27T10:58:49.225Z,45.90
2018-02-27T11:04:10.638Z,45.80
2018-02-27T11:09:24.452Z,47.50
2018-02-27T11:41:58.441Z,44.50
2018-02-27T12:04:20.144Z,46.50
2018-02-27T12:16:04.986Z,46.60
2018-02-27T12:26:40.481Z,46.30
2018-02-27T12:36:50.984Z,47.50
2018-02-27T12:41:55.278Z,47.70
2018-02-27T12:46:58.731Z,47.40
2018-02-27T12:52:02.123Z,47.90
2018-02-27T12:57:08.411Z,46.70
2018-02-27T13:02:11.413Z,47.10
2018-02-27T13:07:15.040Z,47.50
2018-02-27T13:12:21.228Z,46.80
2018-02-27T13:17:23.883Z,47.30
2018-02-27T13:22:27.884Z,47.30
2018-02-27T13:27:31.427Z,46.80
2018-02-27T13:37:41.786Z,47.10
2018-02-27T13:47:55.002Z,45.30
2018-02-27T13:52:58.037Z,45.20
2018-02-27T13:58:01.569Z,43.70
2018-02-27T14:03:07.677Z,43.70
2018-02-27T14:08:13.798Z,44.20
2018-02-27T14:13:17.266Z,44.90
2018-02-27T14:18:22.464Z,45.40
2018-02-27T14:23:28.785Z,45.00
2018-02-27T14:28:34.789Z,44.20
2018-02-27T14:33:38.399Z,44.30
2018-02-27T14:38:42.890Z,43.80
2018-02-27T14:43:46.013Z,43.60
2018-02-27T14:48:49.474Z,42.90
2018-02-27T14:53:54.653Z,42.10
2018-02-27T14:58:57.550Z,42.00
2018-02-27T15:04:01.637Z,41.90
2018-02-27T15:09:05.382Z,42.20
2018-02-27T15:14:08.912Z,41.80
2018-02-27T15:29:26.902Z,41.70
2018-02-27T15:34:32.523Z,41.70
2018-02-27T15:39:38.216Z,42.40
2018-02-27T15:44:42.840Z,42.40
2018-02-27T15:49:47.952Z,42.40
2018-02-27T15:54:52.640Z,42.10
2018-02-27T16:05:03.913Z,41.70
2018-02-27T16:10:10.030Z,41.50
2018-02-27T16:20:21.008Z,42.00
2018-02-27T16:25:25.516Z,42.30
2018-02-27T16:30:30.350Z,42.30
2018-02-27T16:35:33.364Z,42.30
2018-02-27T16:40:38.620Z,42.00
2018-02-27T16:45:42.417Z,42.30
2018-02-27T16:50:45.958Z,42.50
2018-02-27T16:55:48.734Z,42.90
2018-02-27T17:00:55.063Z,42.80
2018-02-27T17:05:57.933Z,42.80
2018-02-27T17:11:00.595Z,43.00
2018-02-27T17:16:04.683Z,43.00
2018-02-27T17:21:08.547Z,42.90
2018-02-27T17:26:11.442Z,43.10
2018-02-27T17:31:15.852Z,42.80
2018-02-27T17:42:19.619Z,42.70
2018-02-27T17:47:23.051Z,42.60
2018-02-27T17:52:26.400Z,42.80
2018-02-27T17:57:30.165Z,43.40
2018-02-27T18:02:34.492Z,42.90
2018-02-27T18:07:39.275Z,43.10
2018-02-27T18:12:43.249Z,43.40
2018-02-27T18:23:01.939Z,43.70
2018-02-27T18:28:08.859Z,43.60
2018-02-27T18:33:13.303Z,43.80
2018-02-27T18:38:16.271Z,43.80
2018-02-27T18:48:29.374Z,44.00
2018-02-27T18:53:33.991Z,44.00
2018-02-27T18:58:37.317Z,44.20
2018-02-27T19:03:45.132Z,44.60
2018-02-27T19:08:49.543Z,44.40
2018-02-27T19:13:52.562Z,44.60
2018-02-27T19:19:32.212Z,44.70
2018-02-27T19:24:35.663Z,44.70
2018-02-27T19:29:39.110Z,44.70
2018-02-27T19:34:42.718Z,45.10
2018-02-27T19:39:50.510Z,45.20
2018-02-27T19:44:54.136Z,45.20
2018-02-27T19:49:58.624Z,45.20
2018-02-27T19:55:01.733Z,45.30
2018-02-27T20:00:05.342Z,45.30
2018-02-27T20:05:11.650Z,45.50
2018-02-27T20:20:30.662Z,46.20
2018-02-27T20:25:35.226Z,46.10
2018-02-27T20:30:38.783Z,46.20
2018-02-27T20:35:45.090Z,46.60
2018-02-27T20:40:50.660Z,46.50
2018-02-27T20:45:55.183Z,47.00
2018-02-27T20:50:58.823Z,47.20
2018-02-27T20:56:05.187Z,47.30
2018-02-27T21:01:08.221Z,47.70
2018-02-27T21:06:11.806Z,47.90
2018-02-27T21:11:16.938Z,48.00
2018-02-27T21:16:20.465Z,48.00
2018-02-27T21:21:23.144Z,48.40
2018-02-27T21:26:27.488Z,48.30
2018-02-27T21:31:31.118Z,48.20
2018-02-27T21:36:35.592Z,48.20
2018-02-27T21:41:39.745Z,48.30
2018-02-27T21:46:46.206Z,48.40
2018-02-27T21:51:49.808Z,48.30
2018-02-27T21:56:52.808Z,48.30
2018-02-27T22:01:56.362Z,48.60
2018-02-27T22:07:01.316Z,48.70
2018-02-27T22:12:04.444Z,48.70
2018-02-27T22:17:07.558Z,48.60
2018-02-27T22:22:11.284Z,48.70
2018-02-27T22:32:22.616Z,48.70
2018-02-27T22:37:28.841Z,48.80
2018-02-27T22:42:31.971Z,49.10
2018-02-27T22:47:36.451Z,49.10
2018-02-27T22:52:39.515Z,49.40
2018-02-27T22:57:44.201Z,49.60
2018-02-27T23:02:51.497Z,49.70
2018-02-27T23:07:55.073Z,49.50
2018-02-27T23:12:58.421Z,49.50
2018-02-27T23:18:03.689Z,49.80
2018-02-27T23:23:07.724Z,50.00
2018-02-27T23:28:13.105Z,50.00
2018-02-27T23:33:23.847Z,50.10
2018-02-27T23:43:36.065Z,50.50
2018-02-27T23:48:40.033Z,50.40
2018-02-27T23:53:43.173Z,50.90
